Time;durP1;ratioP1;P1;durP2;ratioP2;P2;SDS_P1;SDS_P2;PMS_P1;PMS_P2;Temp;Humidity;BMP_temperature;BMP_pressure;BME280_temperature;BME280_humidity;BME280_pressure;Samples;Min_cycle;Max_cycle;Signal;HPM_P1;HPM_P2
2022/11/17 00:01:18;;;;;;;;;;;;;;;13.89;56.05;97643.13;4512472;31;34318;-86
2022/11/17 00:03:47;;;;;;;;;;;;;;;14.48;54.41;97651.16;4511288;31;34131;-87
2022/11/17 00:06:14;;;;;;;;;;;;;;;14.89;53.33;97651.78;4507565;31;33997;-84
2022/11/17 00:08:42;;;;;;;;;;;;;;;15.58;51.75;97653.16;4512965;31;34998;-85
2022/11/17 00:11:09;;;;;;;;;;;;;;;15.46;51.67;97647.47;4502329;31;35131;-84
2022/11/17 00:16:22;;;;;;;;;;;;;;;14.95;52.90;97646.37;4499570;31;33427;-88
2022/11/17 00:21:35;;;;;;;;;;;;;;;15.24;52.07;97642.91;4512377;31;34907;-85
2022/11/17 00:24:03;;;;;;;;;;;;;;;14.10;54.90;97639.13;4507639;31;34269;-89
2022/11/17 00:26:31;;;;;;;;;;;;;;;14.64;53.85;97640.31;4515421;31;34257;-88
2022/11/17 00:28:59;;;;;;;;;;;;;;;14.87;53.19;97635.31;4515266;31;34475;-86
2022/11/17 00:34:14;;;;;;;;;;;;;;;15.62;51.03;97640.00;4499345;31;35051;-87
2022/11/17 00:36:46;;;;;;;;;;;;;;;15.44;51.24;97644.03;4497913;31;33493;-86
2022/11/17 00:39:13;;;;;;;;;;;;;;;15.83;50.30;97639.31;4498160;31;33818;-87
2022/11/17 00:41:40;;;;;;;;;;;;;;;14.60;53.84;97634.34;4500771;31;33878;-86
2022/11/17 00:44:08;;;;;;;;;;;;;;;13.91;55.70;97640.50;4515152;31;35035;-87
2022/11/17 00:46:36;;;;;;;;;;;;;;;15.48;51.47;97640.44;4498370;31;33447;-85
2022/11/17 00:49:06;;;;;;;;;;;;;;;15.53;51.20;97638.53;4499282;31;34743;-87
2022/11/17 00:51:33;;;;;;;;;;;;;;;15.90;50.09;97632.16;4509614;31;34194;-87
2022/11/17 00:54:01;;;;;;;;;;;;;;;15.71;50.49;97631.91;4513672;31;35030;-89
2022/11/17 00:56:28;;;;;;;;;;;;;;;15.69;50.62;97631.09;4500610;31;33165;-84
2022/11/17 00:58:55;;;;;;;;;;;;;;;15.22;51.70;97628.19;4499255;31;34906;-86
2022/11/17 01:01:23;;;;;;;;;;;;;;;15.20;51.92;97630.00;4502073;31;35120;-86
2022/11/17 01:03:50;;;;;;;;;;;;;;;15.23;51.60;97624.69;4510816;31;34853;-86
2022/11/17 01:06:30;;;;;;;;;;;;;;;15.12;52.33;97621.56;4515330;31;33239;-87
2022/11/17 01:08:59;;;;;;;;;;;;;;;14.78;52.64;97617.31;4514023;31;34121;-88
2022/11/17 01:11:26;;;;;;;;;;;;;;;14.92;52.67;97611.69;4507670;31;34228;-87
2022/11/17 01:13:54;;;;;;;;;;;;;;;14.84;53.10;97617.13;4515356;31;33863;-87
2022/11/17 01:16:22;;;;;;;;;;;;;;;14.39;54.25;97608.81;4515698;31;33233;-89
2022/11/17 01:18:49;;;;;;;;;;;;;;;14.64;53.53;97604.66;4504483;31;35113;-85
2022/11/17 01:21:18;;;;;;;;;;;;;;;15.16;51.75;97597.06;4501693;31;34412;-84
2022/11/17 01:23:46;;;;;;;;;;;;;;;15.32;51.39;97593.06;4497711;31;34763;-87
2022/11/17 01:26:20;;;;;;;;;;;;;;;14.63;52.86;97592.53;4511465;31;33384;-88
2022/11/17 01:28:47;;;;;;;;;;;;;;;14.69;52.83;97596.69;4504508;31;34227;-87
2022/11/17 01:31:19;;;;;;;;;;;;;;;14.35;54.02;97597.59;4503870;31;35132;-88
2022/11/17 01:33:46;;;;;;;;;;;;;;;14.95;52.51;97588.97;4513617;31;34081;-89
2022/11/17 01:36:18;;;;;;;;;;;;;;;15.05;51.96;97595.62;4513692;31;32780;-87
2022/11/17 01:38:45;;;;;;;;;;;;;;;14.55;53.26;97594.50;4507710;31;33768;-88
2022/11/17 01:41:19;;;;;;;;;;;;;;;14.67;52.88;97599.38;4508015;31;34112;-86
2022/11/17 01:43:51;;;;;;;;;;;;;;;14.20;54.42;97596.28;4498870;31;34160;-89
2022/11/17 01:46:29;;;;;;;;;;;;;;;14.27;54.18;97594.38;4497328;31;33435;-88
2022/11/17 01:49:02;;;;;;;;;;;;;;;14.97;52.09;97591.53;4512402;31;33654;-86
2022/11/17 01:51:29;;;;;;;;;;;;;;;14.64;52.76;97589.00;4504328;31;34771;-87
2022/11/17 01:53:56;;;;;;;;;;;;;;;13.75;55.81;97609.63;4499182;31;34138;-88
2022/11/17 01:56:25;;;;;;;;;;;;;;;14.54;53.63;97603.19;4498617;31;33535;-85
2022/11/17 01:58:54;;;;;;;;;;;;;;;13.93;55.26;97615.25;4507713;31;34090;-85
2022/11/17 02:01:21;;;;;;;;;;;;;;;14.05;54.61;97621.03;4512952;31;34132;-85
2022/11/17 02:03:50;;;;;;;;;;;;;;;13.50;56.14;97622.37;4514516;31;35007;-85
2022/11/17 02:06:19;;;;;;;;;;;;;;;12.51;58.92;97616.69;4513527;31;33455;-89
2022/11/17 02:08:47;;;;;;;;;;;;;;;12.61;59.09;97611.28;4504491;31;35104;-85
2022/11/17 02:11:16;;;;;;;;;;;;;;;13.36;56.66;97624.44;4511474;31;35070;-89
2022/11/17 02:13:44;;;;;;;;;;;;;;;13.48;56.24;97629.34;4513020;31;34047;-86
2022/11/17 02:16:13;;;;;;;;;;;;;;;13.88;54.87;97631.84;4500158;31;33844;-85
2022/11/17 02:18:41;;;;;;;;;;;;;;;13.57;56.06;97621.34;4499315;31;34269;-86
2022/11/17 02:21:27;;;;;;;;;;;;;;;12.74;58.26;97624.03;4499894;31;34556;-86
2022/11/17 02:24:12;;;;;;;;;;;;;;;13.09;57.12;97616.31;4498235;31;33663;-89
2022/11/17 02:26:47;;;;;;;;;;;;;;;13.10;57.42;97605.03;4504399;31;33291;-84
2022/11/17 02:29:18;;;;;;;;;;;;;;;13.38;56.36;97607.03;4508035;31;33636;-86
2022/11/17 02:31:52;;;;;;;;;;;;;;;13.38;56.38;97596.62;4498131;31;34426;-88
2022/11/17 02:34:22;;;;;;;;;;;;;;;13.33;56.76;97603.69;4496963;31;34863;-84
2022/11/17 02:36:53;;;;;;;;;;;;;;;13.07;57.46;97596.47;4498518;31;33424;-88
2022/11/17 02:39:21;;;;;;;;;;;;;;;12.75;58.50;97597.12;4498180;31;33813;-86
2022/11/17 02:41:54;;;;;;;;;;;;;;;12.87;58.15;97592.53;4501705;31;34947;-88
2022/11/17 02:44:27;;;;;;;;;;;;;;;13.48;56.43;97592.03;4512977;31;33895;-86
2022/11/17 02:47:02;;;;;;;;;;;;;;;13.66;55.72;97590.75;4505986;31;33154;-89
2022/11/17 02:49:32;;;;;;;;;;;;;;;13.76;55.19;97581.81;4504526;31;34200;-86
2022/11/17 02:51:59;;;;;;;;;;;;;;;14.39;53.59;97575.78;4510106;31;34331;-89
2022/11/17 02:54:27;;;;;;;;;;;;;;;14.10;53.95;97585.25;4499412;31;33961;-89
2022/11/17 02:56:54;;;;;;;;;;;;;;;13.75;54.99;97600.94;4498796;31;33165;-86
2022/11/17 02:59:25;;;;;;;;;;;;;;;13.56;55.45;97601.41;4504720;31;34843;-84
2022/11/17 03:01:56;;;;;;;;;;;;;;;14.35;53.46;97588.03;4504675;31;34033;-85
2022/11/17 03:04:33;;;;;;;;;;;;;;;14.22;53.71;97578.84;4499029;31;34266;-89
2022/11/17 03:07:06;;;;;;;;;;;;;;;12.84;57.31;97578.72;4500808;31;33139;-90
2022/11/17 03:09:53;;;;;;;;;;;;;;;12.73;58.09;97565.09;4498574;31;33829;-88
2022/11/17 03:12:21;;;;;;;;;;;;;;;12.46;58.95;97571.72;4508947;31;34154;-88
2022/11/17 03:15:03;;;;;;;;;;;;;;;12.94;57.28;97569.84;4501824;31;34861;-85
2022/11/17 03:17:31;;;;;;;;;;;;;;;12.71;57.84;97561.69;4514595;31;34210;-87
2022/11/17 03:20:02;;;;;;;;;;;;;;;12.87;56.95;97569.09;4514710;31;34239;-86
2022/11/17 03:22:42;;;;;;;;;;;;;;;13.00;56.49;97559.31;4500939;31;35246;-88
2022/11/17 03:25:11;;;;;;;;;;;;;;;13.07;56.74;97557.44;4500276;31;34071;-85
2022/11/17 03:27:39;;;;;;;;;;;;;;;13.86;54.32;97547.69;4486103;31;32513;-85
2022/11/17 03:30:07;;;;;;;;;;;;;;;13.49;55.03;97552.97;4498814;31;34052;-85
2022/11/17 03:32:39;;;;;;;;;;;;;;;13.35;55.68;97547.25;4500813;31;34116;-86
2022/11/17 03:35:07;;;;;;;;;;;;;;;13.64;54.37;97549.13;4498709;31;34301;-86
2022/11/17 03:37:35;;;;;;;;;;;;;;;13.74;54.67;97563.63;4498333;31;34329;-89
2022/11/17 03:40:12;;;;;;;;;;;;;;;12.35;58.74;97567.63;4499874;31;33597;-85
2022/11/17 03:42:42;;;;;;;;;;;;;;;12.87;57.53;97586.47;4501656;31;34117;-83
2022/11/17 03:45:29;;;;;;;;;;;;;;;12.70;57.84;97586.84;4514508;31;33957;-87
2022/11/17 03:48:01;;;;;;;;;;;;;;;12.88;57.62;97601.22;4515792;31;33334;-87
2022/11/17 03:50:31;;;;;;;;;;;;;;;12.87;57.31;97612.47;4512646;31;35067;-85
2022/11/17 03:52:59;;;;;;;;;;;;;;;12.63;57.37;97606.91;4499397;31;34288;-86
2022/11/17 03:55:26;;;;;;;;;;;;;;;13.09;56.26;97611.12;4499474;31;33892;-88
2022/11/17 03:57:56;;;;;;;;;;;;;;;12.45;58.06;97619.41;4513713;31;34315;-86
2022/11/17 04:00:24;;;;;;;;;;;;;;;13.05;56.64;97619.03;4513022;31;34998;-87
2022/11/17 04:02:55;;;;;;;;;;;;;;;12.83;57.44;97623.84;4500401;31;34272;-88
2022/11/17 04:05:22;;;;;;;;;;;;;;;13.08;56.80;97619.81;4498733;31;34222;-84
2022/11/17 04:07:49;;;;;;;;;;;;;;;13.04;56.68;97612.12;4499473;31;33447;-87
2022/11/17 04:10:20;;;;;;;;;;;;;;;12.88;57.47;97614.22;4499506;31;34336;-84
2022/11/17 04:18:19;;;;;;;;;;;;;;;12.56;58.65;97609.66;4515587;31;34269;-88
2022/11/17 04:20:51;;;;;;;;;;;;;;;12.01;60.63;97608.97;4512212;31;33986;-88
2022/11/17 04:23:18;;;;;;;;;;;;;;;13.09;57.15;97602.47;4511590;31;34970;-88
2022/11/17 04:28:36;;;;;;;;;;;;;;;13.53;55.64;97611.88;4514421;31;33798;-86
2022/11/17 04:31:16;;;;;;;;;;;;;;;14.09;53.84;97620.03;4509460;31;34100;-86
2022/11/17 04:33:44;;;;;;;;;;;;;;;13.37;55.52;97613.13;4499333;31;34924;-86
2022/11/17 04:36:12;;;;;;;;;;;;;;;12.71;57.19;97613.69;4498114;31;34797;-88
2022/11/17 04:38:39;;;;;;;;;;;;;;;13.94;54.10;97610.00;4503838;31;32687;-88
2022/11/17 04:44:14;;;;;;;;;;;;;;;14.62;51.88;97603.84;4479281;32;35203;-88
2022/11/17 04:46:43;;;;;;;;;;;;;;;14.17;52.78;97606.81;4481216;32;33896;-89
2022/11/17 04:49:10;;;;;;;;;;;;;;;14.34;52.53;97612.41;4501475;31;33280;-88
2022/11/17 04:51:38;;;;;;;;;;;;;;;14.41;52.13;97607.87;4512737;31;33954;-88
2022/11/17 04:54:06;;;;;;;;;;;;;;;13.63;54.17;97621.16;4499401;31;33871;-88
2022/11/17 04:56:33;;;;;;;;;;;;;;;13.44;54.56;97617.28;4499206;31;34166;-87
2022/11/17 04:59:00;;;;;;;;;;;;;;;13.92;52.96;97619.59;4497775;31;34168;-88
2022/11/17 05:01:27;;;;;;;;;;;;;;;13.97;52.82;97617.72;4499809;31;34121;-87
2022/11/17 05:03:55;;;;;;;;;;;;;;;13.11;54.35;97635.38;4499517;31;34442;-88
2022/11/17 05:06:26;;;;;;;;;;;;;;;13.12;54.59;97631.88;4507698;31;34198;-86
2022/11/17 05:08:54;;;;;;;;;;;;;;;12.77;56.27;97645.63;4513873;31;33271;-86
2022/11/17 05:14:08;;;;;;;;;;;;;;;12.95;55.92;97644.38;4511604;31;34760;-84
2022/11/17 05:19:22;;;;;;;;;;;;;;;13.26;55.22;97643.75;4507513;31;33235;-84
2022/11/17 05:21:50;;;;;;;;;;;;;;;13.68;54.17;97648.88;4500121;31;35081;-87
2022/11/17 05:24:17;;;;;;;;;;;;;;;13.92;53.59;97645.66;4505994;31;34791;-86
2022/11/17 05:26:45;;;;;;;;;;;;;;;14.71;51.33;97634.91;4501075;31;34235;-85
2022/11/17 05:29:13;;;;;;;;;;;;;;;14.47;51.77;97643.34;4498597;31;33429;-86
2022/11/17 05:31:40;;;;;;;;;;;;;;;13.81;53.45;97642.47;4506999;31;34131;-90
2022/11/17 05:34:08;;;;;;;;;;;;;;;13.73;53.86;97636.59;4510230;31;36485;-86
2022/11/17 05:36:36;;;;;;;;;;;;;;;13.45;54.83;97645.06;4511472;31;34009;-87
2022/11/17 05:39:03;;;;;;;;;;;;;;;13.38;55.13;97639.13;4505880;31;34181;-87
2022/11/17 05:41:30;;;;;;;;;;;;;;;13.72;54.12;97630.53;4508222;31;32736;-88
2022/11/17 05:43:57;;;;;;;;;;;;;;;14.40;52.42;97627.03;4509947;31;35278;-90
2022/11/17 05:46:25;;;;;;;;;;;;;;;14.49;51.98;97626.81;4503196;31;34243;-85
2022/11/17 05:48:52;;;;;;;;;;;;;;;14.47;52.04;97633.81;4501798;31;33269;-87
2022/11/17 05:51:21;;;;;;;;;;;;;;;13.92;53.02;97645.66;4510145;31;35091;-87
2022/11/17 05:53:48;;;;;;;;;;;;;;;14.80;50.71;97645.06;4505765;31;34219;-88
2022/11/17 05:56:27;;;;;;;;;;;;;;;14.82;50.78;97650.25;4508554;31;32862;-86
2022/11/17 05:58:56;;;;;;;;;;;;;;;14.07;52.45;97655.69;4507405;31;33340;-87
2022/11/17 06:01:23;;;;;;;;;;;;;;;13.35;54.49;97662.63;4511650;31;34364;-87
2022/11/17 06:03:51;;;;;;;;;;;;;;;14.10;52.61;97665.19;4501606;31;35374;-86
2022/11/17 06:06:18;;;;;;;;;;;;;;;13.75;53.44;97664.31;4504135;31;34970;-89
2022/11/17 06:08:46;;;;;;;;;;;;;;;13.88;53.34;97664.88;4514486;31;34234;-86
2022/11/17 06:11:15;;;;;;;;;;;;;;;14.44;51.72;97670.38;4513020;31;33910;-86
2022/11/17 06:13:42;;;;;;;;;;;;;;;14.65;51.15;97663.75;4510072;31;34354;-88
2022/11/17 06:16:10;;;;;;;;;;;;;;;13.61;53.83;97669.84;4500184;31;34251;-86
2022/11/17 06:18:40;;;;;;;;;;;;;;;13.97;52.99;97662.03;4502408;31;33351;-88
2022/11/17 06:21:08;;;;;;;;;;;;;;;13.99;52.85;97660.25;4500174;31;33927;-88
2022/11/17 06:23:35;;;;;;;;;;;;;;;14.28;52.08;97656.91;4499286;31;34297;-87
2022/11/17 06:26:03;;;;;;;;;;;;;;;13.27;54.58;97667.16;4500103;31;34112;-89
2022/11/17 06:28:30;;;;;;;;;;;;;;;14.31;51.64;97664.62;4504441;31;33385;-89
2022/11/17 06:30:58;;;;;;;;;;;;;;;13.70;52.97;97657.50;4496948;31;34320;-89
2022/11/17 06:33:26;;;;;;;;;;;;;;;13.08;54.76;97651.03;4499475;31;35230;-87
2022/11/17 06:35:53;;;;;;;;;;;;;;;12.94;55.34;97658.28;4514052;31;34750;-86
2022/11/17 06:38:20;;;;;;;;;;;;;;;13.42;54.02;97660.75;4514423;31;33065;-86
2022/11/17 06:40:48;;;;;;;;;;;;;;;13.36;54.15;97655.66;4513951;31;35192;-86
2022/11/17 06:43:15;;;;;;;;;;;;;;;14.45;50.73;97653.84;4504740;31;33838;-88
2022/11/17 06:45:43;;;;;;;;;;;;;;;13.86;52.44;97666.63;4502305;31;33823;-88
2022/11/17 06:48:12;;;;;;;;;;;;;;;13.10;54.38;97669.22;4498231;31;33494;-88
2022/11/17 06:50:39;;;;;;;;;;;;;;;13.27;54.21;97682.75;4498311;31;34071;-87
2022/11/17 06:53:07;;;;;;;;;;;;;;;13.51;53.07;97681.34;4497954;31;34439;-89
2022/11/17 06:55:35;;;;;;;;;;;;;;;13.61;52.75;97682.88;4497930;31;33894;-89
2022/11/17 06:58:05;;;;;;;;;;;;;;;13.52;53.33;97684.81;4498034;31;34298;-86
2022/11/17 07:00:32;;;;;;;;;;;;;;;13.60;53.14;97686.38;4497841;31;34163;-89
2022/11/17 07:03:00;;;;;;;;;;;;;;;13.67;53.10;97699.22;4497793;31;34370;-87
2022/11/17 07:05:28;;;;;;;;;;;;;;;13.00;54.96;97701.53;4498142;31;34341;-86
2022/11/17 07:07:56;;;;;;;;;;;;;;;13.13;54.50;97701.22;4497849;31;33080;-87
2022/11/17 07:10:23;;;;;;;;;;;;;;;13.68;53.29;97703.56;4498045;31;34702;-87
2022/11/17 07:12:50;;;;;;;;;;;;;;;14.25;51.69;97698.69;4497826;31;35350;-89
2022/11/17 07:15:18;;;;;;;;;;;;;;;12.95;55.86;97701.59;4497632;31;34905;-88
2022/11/17 07:17:45;;;;;;;;;;;;;;;11.82;59.78;97703.59;4497701;31;33792;-89
2022/11/17 07:20:12;;;;;;;;;;;;;;;12.35;58.54;97704.47;4496584;31;35012;-89
2022/11/17 07:22:42;;;;;;;;;;;;;;;13.98;53.62;97696.75;4496266;31;34039;-89
2022/11/17 07:25:10;;;;;;;;;;;;;;;12.73;57.34;97693.41;4496481;31;34102;-89
2022/11/17 07:27:37;;;;;;;;;;;;;;;11.22;62.24;97708.81;4498774;31;33003;-86
2022/11/17 07:30:05;;;;;;;;;;;;;;;11.82;60.77;97707.09;4499720;31;33913;-85
2022/11/17 07:32:33;;;;;;;;;;;;;;;11.87;60.91;97713.09;4500069;31;34374;-87
2022/11/17 07:35:00;;;;;;;;;;;;;;;12.83;57.96;97707.06;4499960;31;33680;-87
2022/11/17 07:37:32;;;;;;;;;;;;;;;12.27;58.90;97707.22;4500915;31;34102;-87
2022/11/17 07:39:59;;;;;;;;;;;;;;;11.35;61.41;97707.75;4500028;31;34205;-88
2022/11/17 07:42:26;;;;;;;;;;;;;;;11.24;62.73;97720.03;4499806;31;34298;-89
2022/11/17 07:44:53;;;;;;;;;;;;;;;12.98;56.95;97721.50;4499866;31;34371;-88
2022/11/17 07:47:21;;;;;;;;;;;;;;;13.94;54.70;97716.84;4499880;31;34182;-87
2022/11/17 07:49:48;;;;;;;;;;;;;;;12.75;57.82;97711.56;4499755;31;34955;-87
2022/11/17 07:52:15;;;;;;;;;;;;;;;12.84;57.27;97726.97;4499577;31;35092;-88
2022/11/17 07:54:42;;;;;;;;;;;;;;;13.32;56.10;97725.16;4499616;31;34259;-86
2022/11/17 07:57:09;;;;;;;;;;;;;;;13.65;55.26;97707.09;4500060;31;34072;-88
2022/11/17 07:59:37;;;;;;;;;;;;;;;11.49;61.02;97705.84;4499346;31;34178;-89
2022/11/17 08:02:04;;;;;;;;;;;;;;;12.72;57.89;97709.00;4499766;31;35257;-87
2022/11/17 08:04:32;;;;;;;;;;;;;;;13.88;54.71;97714.37;4500172;31;34466;-89
2022/11/17 08:06:59;;;;;;;;;;;;;;;14.03;54.22;97700.97;4499819;31;33473;-89
2022/11/17 08:09:26;;;;;;;;;;;;;;;14.10;54.31;97702.53;4499755;31;34876;-87
2022/11/17 08:11:55;;;;;;;;;;;;;;;13.67;55.42;97701.81;4499913;31;34515;-89
2022/11/17 08:14:22;;;;;;;;;;;;;;;13.94;54.66;97700.31;4499518;31;34988;-89
2022/11/17 08:16:49;;;;;;;;;;;;;;;13.31;55.74;97707.84;4499831;31;34085;-90
2022/11/17 08:19:16;;;;;;;;;;;;;;;13.06;56.94;97710.03;4499723;31;34206;-86
2022/11/17 08:21:43;;;;;;;;;;;;;;;13.71;55.99;97724.31;4499616;31;34170;-86
2022/11/17 08:24:11;;;;;;;;;;;;;;;13.58;55.98;97719.38;4499621;31;34346;-89
2022/11/17 08:26:38;;;;;;;;;;;;;;;13.83;55.46;97717.09;4499530;31;33487;-89
2022/11/17 08:29:05;;;;;;;;;;;;;;;13.14;57.02;97721.19;4499468;31;34840;-86
2022/11/17 08:31:32;;;;;;;;;;;;;;;13.66;55.27;97726.16;4499393;31;33894;-89
2022/11/17 08:34:00;;;;;;;;;;;;;;;13.43;55.77;97722.31;4499830;31;34921;-86
2022/11/17 08:36:27;;;;;;;;;;;;;;;13.94;55.27;97736.78;4499414;31;34199;-86
2022/11/17 08:38:54;;;;;;;;;;;;;;;13.69;55.23;97726.97;4498783;31;34131;-89
2022/11/17 08:41:22;;;;;;;;;;;;;;;13.66;55.32;97723.56;4499318;31;34295;-89
2022/11/17 08:43:49;;;;;;;;;;;;;;;14.24;53.36;97729.97;4473997;31;784751;-87
2022/11/17 08:46:16;;;;;;;;;;;;;;;14.86;52.19;97740.56;4499468;31;33425;-88
2022/11/17 08:48:44;;;;;;;;;;;;;;;15.15;51.28;97736.28;4498152;31;34808;-86
2022/11/17 08:51:11;;;;;;;;;;;;;;;13.73;54.95;97745.97;4499307;31;34113;-87
2022/11/17 08:53:38;;;;;;;;;;;;;;;14.96;51.69;97747.22;4498102;31;34361;-90
2022/11/17 08:56:09;;;;;;;;;;;;;;;13.85;55.03;97749.16;4499240;31;33052;-87
2022/11/17 08:58:37;;;;;;;;;;;;;;;12.34;59.09;97753.00;4499245;31;34166;-87
2022/11/17 09:01:06;;;;;;;;;;;;;;;13.14;57.17;97754.13;4499646;31;33760;-89
2022/11/17 09:03:33;;;;;;;;;;;;;;;14.01;53.86;97748.78;4499131;31;34714;-89
2022/11/17 09:06:01;;;;;;;;;;;;;;;13.52;55.38;97749.91;4499234;31;34015;-88
2022/11/17 09:08:28;;;;;;;;;;;;;;;13.58;55.27;97753.22;4498074;31;34196;-89
2022/11/17 09:11:13;;;;;;;;;;;;;;;13.42;55.40;97754.47;4499153;31;34310;-86
2022/11/17 09:13:41;;;;;;;;;;;;;;;12.98;56.65;97756.19;4499341;31;34063;-89
2022/11/17 09:16:09;;;;;;;;;;;;;;;14.24;53.50;97749.09;4499315;31;33415;-86
2022/11/17 09:18:37;;;;;;;;;;;;;;;14.45;53.30;97758.13;4498972;31;35016;-88
2022/11/17 09:21:08;;;;;;;;;;;;;;;14.68;52.14;97760.19;4499256;31;34426;-89
2022/11/17 09:23:35;;;;;;;;;;;;;;;15.28;51.27;97753.31;4498076;31;34550;-88
2022/11/17 09:26:05;;;;;;;;;;;;;;;15.39;50.59;97759.09;4497649;31;34027;-89
2022/11/17 09:28:32;;;;;;;;;;;;;;;14.72;52.55;97769.63;4497920;31;35020;-89
2022/11/17 09:31:04;;;;;;;;;;;;;;;15.75;49.60;97757.16;4499117;31;34222;-86
2022/11/17 09:33:32;;;;;;;;;;;;;;;15.53;50.31;97754.34;4499073;31;34050;-89
2022/11/17 09:35:59;;;;;;;;;;;;;;;14.49;52.84;97761.53;4499008;31;33559;-89
2022/11/17 09:38:26;;;;;;;;;;;;;;;14.75;52.16;97758.28;4499002;31;34071;-86
2022/11/17 09:40:55;;;;;;;;;;;;;;;15.36;50.61;97751.34;4498835;31;34941;-89
2022/11/17 09:43:25;;;;;;;;;;;;;;;15.81;49.21;97748.28;4499011;31;34213;-89
2022/11/17 09:45:53;;;;;;;;;;;;;;;15.40;51.22;97739.06;4497702;31;34169;-87
2022/11/17 09:48:26;;;;;;;;;;;;;;;15.09;52.06;97739.94;4498995;31;34911;-87
2022/11/17 09:51:08;;;;;;;;;;;;;;;15.45;51.75;97731.94;4496491;31;34945;-85
2022/11/17 09:53:48;;;;;;;;;;;;;;;14.60;53.51;97747.34;4497627;31;35019;-87
2022/11/17 09:56:15;;;;;;;;;;;;;;;15.01;52.30;97737.53;4498108;31;33064;-89
2022/11/17 09:58:42;;;;;;;;;;;;;;;15.42;51.33;97734.63;4497457;31;34088;-87
2022/11/17 10:01:14;;;;;;;;;;;;;;;14.63;52.24;97732.53;4498918;31;34164;-89
2022/11/17 10:03:43;;;;;;;;;;;;;;;14.69;52.89;97737.56;4497544;31;34846;-89
2022/11/17 10:06:19;;;;;;;;;;;;;;;15.35;50.69;97723.53;4498744;31;34137;-89
2022/11/17 10:08:50;;;;;;;;;;;;;;;15.01;52.13;97728.88;4498651;31;34124;-87
2022/11/17 10:11:32;;;;;;;;;;;;;;;15.45;50.89;97729.31;4498340;31;34542;-86
2022/11/17 10:14:14;;;;;;;;;;;;;;;14.90;52.40;97734.38;4497686;31;34184;-88
2022/11/17 10:16:43;;;;;;;;;;;;;;;14.86;51.99;97735.38;4498938;31;33342;-89
2022/11/17 10:19:15;;;;;;;;;;;;;;;14.62;52.34;97736.00;4498606;31;34233;-90
2022/11/17 10:21:42;;;;;;;;;;;;;;;14.71;52.15;97735.78;4498427;31;34388;-87
2022/11/17 10:24:10;;;;;;;;;;;;;;;15.16;51.54;97736.25;4497029;31;35039;-89
2022/11/17 10:26:42;;;;;;;;;;;;;;;14.82;52.25;97736.34;4497214;31;34184;-86
2022/11/17 10:29:11;;;;;;;;;;;;;;;15.51;50.55;97727.38;4498485;31;34066;-89
2022/11/17 10:31:41;;;;;;;;;;;;;;;14.92;51.89;97729.09;4497341;31;34969;-88
2022/11/17 10:34:09;;;;;;;;;;;;;;;15.54;50.74;97724.69;4499104;31;34055;-88
2022/11/17 10:36:43;;;;;;;;;;;;;;;15.88;49.75;97726.28;4497174;31;33426;-87
2022/11/17 10:39:30;;;;;;;;;;;;;;;15.36;50.66;97730.47;4497273;31;34800;-89
2022/11/17 10:41:57;;;;;;;;;;;;;;;15.81;49.98;97727.38;4498378;31;34887;-88
2022/11/17 10:44:24;;;;;;;;;;;;;;;15.92;50.36;97720.06;4497476;31;34622;-86
2022/11/17 10:46:54;;;;;;;;;;;;;;;16.13;49.12;97728.09;4497277;31;33781;-89
2022/11/17 10:49:38;;;;;;;;;;;;;;;14.94;52.06;97749.06;4497076;31;34089;-89
2022/11/17 10:52:15;;;;;;;;;;;;;;;15.44;50.79;97738.06;4498129;31;34285;-87
2022/11/17 10:54:43;;;;;;;;;;;;;;;14.00;54.39;97742.72;4497015;31;34930;-90
2022/11/17 10:57:18;;;;;;;;;;;;;;;14.84;53.01;97745.81;4498020;31;34020;-89
2022/11/17 10:59:49;;;;;;;;;;;;;;;14.95;51.92;97736.84;4496602;31;34233;-89
2022/11/17 11:02:36;;;;;;;;;;;;;;;14.64;52.95;97742.91;4497657;31;35275;-88
2022/11/17 11:05:04;;;;;;;;;;;;;;;15.46;50.48;97726.69;4499516;31;33620;-89
2022/11/17 11:07:31;;;;;;;;;;;;;;;15.86;50.13;97722.84;4500201;31;33357;-87
2022/11/17 11:10:01;;;;;;;;;;;;;;;14.93;52.06;97726.47;4500366;31;34264;-88
2022/11/17 11:12:31;;;;;;;;;;;;;;;16.14;48.43;97716.75;4499025;31;34305;-89
2022/11/17 11:14:59;;;;;;;;;;;;;;;15.74;49.36;97720.63;4500183;31;33988;-88
2022/11/17 11:17:26;;;;;;;;;;;;;;;15.95;48.96;97714.75;4500414;31;33997;-87
2022/11/17 11:19:53;;;;;;;;;;;;;;;15.68;49.08;97715.59;4498870;31;33916;-86
2022/11/17 11:22:30;;;;;;;;;;;;;;;16.17;47.54;97711.41;4499948;31;35214;-86
2022/11/17 11:25:09;;;;;;;;;;;;;;;16.02;49.04;97713.66;4500108;31;33983;-88
2022/11/17 11:27:49;;;;;;;;;;;;;;;14.64;51.36;97722.03;4500294;31;33430;-86
2022/11/17 11:30:17;;;;;;;;;;;;;;;16.21;48.27;97728.72;4500103;31;33967;-86
2022/11/17 11:32:53;;;;;;;;;;;;;;;16.34;47.59;97732.63;4498908;31;33780;-88
2022/11/17 11:35:40;;;;;;;;;;;;;;;16.04;48.44;97724.03;4499750;31;34195;-87
2022/11/17 11:38:43;;;;;;;;;;;;;;;16.81;46.97;97724.09;4500029;31;33228;-86
2022/11/17 11:41:20;;;;;;;;;;;;;;;16.33;47.91;97717.88;4466064;32;34043;-89
2022/11/17 11:43:50;;;;;;;;;;;;;;;17.10;45.10;97723.91;4492326;31;35213;-87
2022/11/17 11:46:22;;;;;;;;;;;;;;;16.22;47.58;97722.59;4499848;31;35001;-89
2022/11/17 11:48:49;;;;;;;;;;;;;;;15.91;47.63;97720.97;4498705;31;32765;-89
2022/11/17 11:51:17;;;;;;;;;;;;;;;15.28;49.34;97724.59;4498414;31;33517;-89
2022/11/17 11:53:54;;;;;;;;;;;;;;;15.94;47.38;97725.22;4499512;31;34515;-88
2022/11/17 11:56:23;;;;;;;;;;;;;;;16.91;45.99;97715.88;4499964;31;34086;-87
2022/11/17 11:59:01;;;;;;;;;;;;;;;15.79;48.20;97718.72;4500091;31;33286;-86
2022/11/17 12:01:31;;;;;;;;;;;;;;;16.21;49.07;97713.03;4500046;31;33941;-88
2022/11/17 12:04:04;;;;;;;;;;;;;;;16.08;48.00;97709.13;4498190;31;34165;-88
2022/11/17 12:06:41;;;;;;;;;;;;;;;17.10;46.32;97713.44;4498496;31;35008;-89
2022/11/17 12:09:26;;;;;;;;;;;;;;;16.93;45.17;97711.44;4499718;31;32859;-88
2022/11/17 12:11:59;;;;;;;;;;;;;;;15.90;48.06;97721.00;4500133;31;34755;-89
2022/11/17 12:14:26;;;;;;;;;;;;;;;16.34;47.27;97718.72;4498698;31;34947;-87
2022/11/17 12:17:12;;;;;;;;;;;;;;;16.23;47.11;97719.91;4499803;31;33691;-88
2022/11/17 12:19:52;;;;;;;;;;;;;;;16.84;45.69;97714.37;4499332;31;34119;-88
2022/11/17 12:22:29;;;;;;;;;;;;;;;17.54;44.25;97710.91;4500013;31;34261;-89
2022/11/17 12:24:56;;;;;;;;;;;;;;;17.32;44.21;97707.41;4499516;31;34398;-88
2022/11/17 12:27:33;;;;;;;;;;;;;;;17.45;44.55;97714.72;4499690;31;35088;-89
2022/11/17 12:30:01;;;;;;;;;;;;;;;17.68;43.46;97716.47;4499760;31;33350;-88
2022/11/17 12:32:47;;;;;;;;;;;;;;;17.33;44.63;97720.44;4498337;31;33847;-87
2022/11/17 12:35:20;;;;;;;;;;;;;;;17.25;44.93;97728.59;4499369;31;35230;-89
2022/11/17 12:37:48;;;;;;;;;;;;;;;16.52;47.28;97725.94;4499644;31;35307;-86
2022/11/17 12:40:33;;;;;;;;;;;;;;;15.69;48.78;97733.00;4499758;31;33145;-89
2022/11/17 12:43:19;;;;;;;;;;;;;;;16.50;47.10;97728.59;4499670;31;33945;-89
2022/11/17 12:46:07;;;;;;;;;;;;;;;16.80;46.26;97731.09;4499254;31;35215;-86
2022/11/17 12:48:34;;;;;;;;;;;;;;;17.08;45.90;97724.88;4493634;31;34250;-88
2022/11/17 12:51:14;;;;;;;;;;;;;;;17.87;44.22;97724.47;4499525;31;33680;-89
2022/11/17 12:53:51;;;;;;;;;;;;;;;18.01;44.22;97726.56;4498099;31;33946;-87
2022/11/17 12:56:29;;;;;;;;;;;;;;;18.06;43.41;97724.59;4498221;31;35289;-86
2022/11/17 12:59:15;;;;;;;;;;;;;;;18.32;43.20;97722.69;4499501;31;33926;-89
2022/11/17 13:01:55;;;;;;;;;;;;;;;18.47;42.97;97722.91;4499749;31;34099;-87
2022/11/17 13:04:32;;;;;;;;;;;;;;;17.93;43.83;97721.63;4498026;31;34115;-90
2022/11/17 13:07:00;;;;;;;;;;;;;;;18.39;43.52;97727.63;4498024;31;33994;-86
2022/11/17 13:09:28;;;;;;;;;;;;;;;18.51;42.67;97731.50;4499497;31;34873;-89
2022/11/17 13:12:06;;;;;;;;;;;;;;;18.83;42.25;97742.44;4499454;31;33420;-89
2022/11/17 13:14:34;;;;;;;;;;;;;;;18.25;42.68;97737.81;4498084;31;33870;-89
2022/11/17 13:17:01;;;;;;;;;;;;;;;18.28;43.07;97734.22;4499380;31;35176;-89
2022/11/17 13:19:38;;;;;;;;;;;;;;;18.45;42.33;97730.00;4498061;31;34283;-88
2022/11/17 13:22:17;;;;;;;;;;;;;;;17.47;44.30;97723.41;4498043;31;33307;-87
2022/11/17 13:24:45;;;;;;;;;;;;;;;17.30;45.07;97731.03;4498969;31;33933;-89
2022/11/17 13:27:16;;;;;;;;;;;;;;;18.20;43.45;97734.53;4499046;31;34491;-89
2022/11/17 13:29:44;;;;;;;;;;;;;;;17.88;43.47;97739.31;4497880;31;34510;-89